Time;durP1;ratioP1;P1;durP2;ratioP2;P2;SDS_P1;SDS_P2;PMS_P1;PMS_P2;Temp;Humidity;BMP_temperature;BMP_pressure;BME280_temperature;BME280_humidity;BME280_pressure;Samples;Min_cycle;Max_cycle;Signal;HPM_P1;HPM_P2
2022/08/24 00:01:12;;;;;;;;;;;;;;;22.27;59.08;99257.39;1631453;87;20142;-69
2022/08/24 00:03:39;;;;;;;;;;;;;;;22.28;58.97;99263.11;1632108;86;20121;-69
2022/08/24 00:06:08;;;;;;;;;;;;;;;22.28;58.95;99265.28;1623433;88;20143;-69
2022/08/24 00:08:36;;;;;;;;;;;;;;;22.29;58.88;99266.11;1631423;86;20212;-71
2022/08/24 00:11:02;;;;;;;;;;;;;;;22.30;58.80;99274.51;1618493;88;20565;-69
2022/08/24 00:13:28;;;;;;;;;;;;;;;22.31;58.75;99272.92;1640955;86;20104;-69
2022/08/24 00:15:55;;;;;;;;;;;;;;;22.31;58.61;99285.64;1644164;86;20091;-69
2022/08/24 00:18:21;;;;;;;;;;;;;;;22.29;58.57;99284.52;1642116;86;20084;-68
2022/08/24 00:20:47;;;;;;;;;;;;;;;22.29;58.56;99287.79;1643870;86;20140;-69
2022/08/24 00:23:14;;;;;;;;;;;;;;;22.29;58.40;99286.44;1644225;87;21151;-69
2022/08/24 00:25:41;;;;;;;;;;;;;;;22.30;58.35;99285.34;1644131;86;20148;-69
2022/08/24 00:28:08;;;;;;;;;;;;;;;22.31;58.44;99286.47;1643953;86;20123;-68
2022/08/24 00:30:34;;;;;;;;;;;;;;;22.30;58.64;99285.34;1643300;86;20585;-69
2022/08/24 00:33:01;;;;;;;;;;;;;;;22.26;58.63;99279.63;1644127;86;20103;-72
2022/08/24 00:35:27;;;;;;;;;;;;;;;22.22;58.55;99277.12;1644239;86;21157;-71
2022/08/24 00:37:54;;;;;;;;;;;;;;;22.20;58.59;99280.62;1643380;86;20104;-72
2022/08/24 00:40:23;;;;;;;;;;;;;;;22.19;58.65;99274.11;1643763;86;20438;-68
2022/08/24 00:42:50;;;;;;;;;;;;;;;22.18;58.77;99270.57;1643668;86;20219;-69
2022/08/24 00:45:17;;;;;;;;;;;;;;;22.18;58.75;99274.64;1644254;86;20159;-70
2022/08/24 00:47:47;;;;;;;;;;;;;;;22.18;58.76;99280.58;1643574;86;21203;-69
2022/08/24 00:50:23;;;;;;;;;;;;;;;22.16;58.94;99277.31;1643575;86;20443;-69
2022/08/24 00:52:52;;;;;;;;;;;;;;;22.11;59.08;99284.81;1644007;86;20120;-68
2022/08/24 00:55:27;;;;;;;;;;;;;;;22.05;59.29;99281.77;1644156;86;20151;-69
2022/08/24 00:57:54;;;;;;;;;;;;;;;21.99;59.45;99276.80;1643267;86;20103;-69
2022/08/24 01:00:24;;;;;;;;;;;;;;;21.96;59.67;99273.77;1644021;86;21130;-70
2022/08/24 01:02:53;;;;;;;;;;;;;;;21.96;59.66;99275.12;1644247;86;20623;-69
2022/08/24 01:05:19;;;;;;;;;;;;;;;21.94;59.53;99284.03;1617919;86;20120;-69
2022/08/24 01:07:49;;;;;;;;;;;;;;;21.89;59.47;99275.30;1643985;86;20119;-69
2022/08/24 01:10:18;;;;;;;;;;;;;;;21.84;59.52;99272.49;1643687;86;20180;-69
2022/08/24 01:12:47;;;;;;;;;;;;;;;21.81;59.48;99275.69;1639148;86;21192;-67
2022/08/24 01:15:13;;;;;;;;;;;;;;;21.77;59.57;99275.88;1632036;86;20481;-69
2022/08/24 01:20:25;;;;;;;;;;;;;;;21.69;59.66;99269.52;1628363;86;20232;-69
2022/08/24 01:23:08;;;;;;;;;;;;;;;21.65;59.74;99264.33;1632293;86;20108;-69
2022/08/24 01:25:34;;;;;;;;;;;;;;;21.66;59.69;99275.45;1634177;86;21640;-69
2022/08/24 01:28:04;;;;;;;;;;;;;;;21.67;59.49;99280.31;1634004;86;20081;-69
2022/08/24 01:30:31;;;;;;;;;;;;;;;21.66;59.54;99276.81;1634869;86;20148;-68
2022/08/24 01:32:59;;;;;;;;;;;;;;;21.65;59.46;99273.80;1634714;86;20124;-70
2022/08/24 01:35:25;;;;;;;;;;;;;;;21.64;59.53;99275.42;1634791;86;20129;-68
2022/08/24 01:37:53;;;;;;;;;;;;;;;21.60;59.62;99277.78;1634368;86;21106;-68
2022/08/24 01:40:19;;;;;;;;;;;;;;;21.57;59.68;99278.27;1634693;86;20446;-67
2022/08/24 01:42:48;;;;;;;;;;;;;;;21.54;59.67;99274.70;1634665;86;20115;-67
2022/08/24 01:45:15;;;;;;;;;;;;;;;21.50;59.53;99274.92;1634285;86;20161;-68
2022/08/24 01:47:42;;;;;;;;;;;;;;;21.47;59.55;99275.41;1633808;86;20125;-69
2022/08/24 01:50:08;;;;;;;;;;;;;;;21.44;59.58;99274.53;1634667;86;22254;-69
2022/08/24 01:52:34;;;;;;;;;;;;;;;21.42;59.64;99271.27;1634710;86;20104;-68
2022/08/24 01:55:01;;;;;;;;;;;;;;;21.42;59.75;99278.03;1634854;86;20092;-70
2022/08/24 01:57:27;;;;;;;;;;;;;;;21.40;59.71;99278.81;1612115;88;20169;-69
2022/08/24 01:59:55;;;;;;;;;;;;;;;21.38;59.80;99282.27;1634848;86;20104;-70
2022/08/24 02:02:24;;;;;;;;;;;;;;;21.38;59.83;99286.33;1633581;86;21153;-70
2022/08/24 02:04:51;;;;;;;;;;;;;;;21.37;59.81;99282.00;1634733;86;20461;-69
2022/08/24 02:07:18;;;;;;;;;;;;;;;21.36;59.73;99278.99;1634600;86;20179;-69
2022/08/24 02:09:45;;;;;;;;;;;;;;;21.38;59.51;99279.56;1634153;86;20439;-71
2022/08/24 02:12:13;;;;;;;;;;;;;;;21.40;59.18;99274.75;1635003;86;20117;-69
2022/08/24 02:14:40;;;;;;;;;;;;;;;21.43;58.88;99276.97;1620375;87;21214;-72
2022/08/24 02:17:07;;;;;;;;;;;;;;;21.45;58.88;99266.19;1645920;86;20155;-71
2022/08/24 02:19:34;;;;;;;;;;;;;;;21.46;59.06;99274.58;1646041;86;20168;-71
2022/08/24 02:22:00;;;;;;;;;;;;;;;21.43;59.22;99270.20;1646346;86;20091;-69
2022/08/24 02:24:27;;;;;;;;;;;;;;;21.41;59.16;99270.96;1640965;86;20107;-72
2022/08/24 02:26:54;;;;;;;;;;;;;;;21.37;59.23;99268.47;1646198;86;21567;-69
2022/08/24 02:29:20;;;;;;;;;;;;;;;21.34;59.26;99268.95;1642781;86;20136;-71
2022/08/24 02:31:47;;;;;;;;;;;;;;;21.29;59.26;99270.22;1645557;85;20132;-70
2022/08/24 02:34:14;;;;;;;;;;;;;;;21.26;59.38;99269.36;1646076;86;21035;-69
2022/08/24 02:36:40;;;;;;;;;;;;;;;21.23;59.49;99265.78;1645002;86;20100;-68
2022/08/24 02:39:07;;;;;;;;;;;;;;;21.18;59.62;99270.58;1645469;85;22012;-68
2022/08/24 02:41:35;;;;;;;;;;;;;;;21.16;59.69;99274.06;1631323;86;20115;-68
2022/08/24 02:44:03;;;;;;;;;;;;;;;21.15;59.65;99276.99;1646459;86;20107;-68
2022/08/24 02:46:29;;;;;;;;;;;;;;;21.12;59.64;99279.66;1645141;86;20133;-68
2022/08/24 02:48:58;;;;;;;;;;;;;;;21.10;59.52;99275.02;1645609;86;20108;-68
2022/08/24 02:51:26;;;;;;;;;;;;;;;21.09;59.51;99273.93;1646417;86;22004;-68
2022/08/24 02:53:53;;;;;;;;;;;;;;;21.09;59.51;99280.69;1646378;87;20418;-68
2022/08/24 02:56:20;;;;;;;;;;;;;;;21.08;59.50;99279.03;1620193;86;20447;-68
2022/08/24 02:58:47;;;;;;;;;;;;;;;21.07;59.37;99282.80;1619590;87;20852;-67
2022/08/24 03:01:13;;;;;;;;;;;;;;;21.07;59.21;99290.38;1646743;86;20156;-68
2022/08/24 03:03:40;;;;;;;;;;;;;;;21.06;59.16;99292.81;1646248;85;21168;-69
2022/08/24 03:06:07;;;;;;;;;;;;;;;21.07;59.23;99294.96;1646163;85;20223;-68
2022/08/24 03:08:34;;;;;;;;;;;;;;;21.04;59.39;99293.53;1645325;86;20127;-71
2022/08/24 03:11:00;;;;;;;;;;;;;;;21.04;59.44;99297.59;1646403;86;20116;-71
2022/08/24 03:13:27;;;;;;;;;;;;;;;21.03;59.47;99304.60;1645805;86;20130;-70
2022/08/24 03:15:54;;;;;;;;;;;;;;;21.03;59.42;99304.60;1645591;86;21279;-68
2022/08/24 03:18:21;;;;;;;;;;;;;;;21.03;59.28;99305.43;1619659;87;20107;-69
2022/08/24 03:20:48;;;;;;;;;;;;;;;21.03;59.20;99311.36;1645964;86;20128;-68
2022/08/24 03:23:15;;;;;;;;;;;;;;;21.02;59.18;99311.89;1646302;86;20095;-70
2022/08/24 03:25:41;;;;;;;;;;;;;;;21.02;59.13;99320.53;1645197;86;20182;-68
2022/08/24 03:28:07;;;;;;;;;;;;;;;20.96;59.25;99321.52;1646335;86;21159;-70
2022/08/24 03:30:35;;;;;;;;;;;;;;;20.94;59.26;99316.33;1646465;86;20101;-70
2022/08/24 03:33:04;;;;;;;;;;;;;;;20.91;59.30;99314.10;1646447;86;20120;-67
2022/08/24 03:35:29;;;;;;;;;;;;;;;20.91;59.34;99316.80;1645325;86;20161;-68
2022/08/24 03:37:56;;;;;;;;;;;;;;;20.90;59.36;99314.66;1646350;86;20246;-68
2022/08/24 03:40:22;;;;;;;;;;;;;;;20.90;59.30;99311.12;1646416;86;21262;-68
2022/08/24 03:42:49;;;;;;;;;;;;;;;20.89;59.27;99310.30;1646321;86;20120;-69
2022/08/24 03:45:16;;;;;;;;;;;;;;;20.88;59.23;99310.00;1645486;86;20155;-68
2022/08/24 03:47:44;;;;;;;;;;;;;;;20.88;59.32;99305.14;1645431;86;20112;-68
2022/08/24 03:50:11;;;;;;;;;;;;;;;20.87;59.39;99301.62;1645706;86;20143;-69
2022/08/24 03:52:37;;;;;;;;;;;;;;;20.90;59.40;99298.95;1646401;86;21159;-68
2022/08/24 03:55:05;;;;;;;;;;;;;;;20.97;59.36;99301.50;1644775;86;20104;-68
2022/08/24 03:57:32;;;;;;;;;;;;;;;21.01;59.22;99302.16;1645823;86;20103;-68
2022/08/24 03:59:58;;;;;;;;;;;;;;;21.03;59.18;99305.43;1646424;86;20133;-68
2022/08/24 04:02:25;;;;;;;;;;;;;;;21.08;59.07;99315.55;1646296;86;20112;-68
2022/08/24 04:04:52;;;;;;;;;;;;;;;21.13;59.12;99313.77;1644856;86;22138;-69
2022/08/24 04:07:18;;;;;;;;;;;;;;;21.21;58.99;99306.61;1645615;86;20461;-68
2022/08/24 04:09:45;;;;;;;;;;;;;;;21.30;58.73;99309.75;1646455;85;20176;-68
2022/08/24 04:12:11;;;;;;;;;;;;;;;21.37;58.58;99305.83;1646278;86;20159;-68
2022/08/24 04:14:38;;;;;;;;;;;;;;;21.46;58.30;99308.41;1647648;85;20116;-70
2022/08/24 04:17:07;;;;;;;;;;;;;;;21.57;58.00;99305.34;1648196;85;21179;-69
2022/08/24 04:19:35;;;;;;;;;;;;;;;21.66;57.77;99303.88;1648730;85;20442;-67
2022/08/24 04:22:02;;;;;;;;;;;;;;;21.80;57.54;99305.70;1649312;85;20103;-67
2022/08/24 04:24:30;;;;;;;;;;;;;;;21.94;57.23;99309.23;1649055;85;20111;-69
2022/08/24 04:26:56;;;;;;;;;;;;;;;22.08;57.02;99309.16;1649017;85;20232;-68
2022/08/24 04:29:24;;;;;;;;;;;;;;;22.24;56.76;99308.05;1624637;87;21180;-67
2022/08/24 04:31:52;;;;;;;;;;;;;;;22.39;56.31;99300.94;1648242;85;20163;-69
2022/08/24 04:34:18;;;;;;;;;;;;;;;22.57;55.89;99299.28;1648272;85;20432;-67
2022/08/24 04:36:45;;;;;;;;;;;;;;;22.76;55.38;99300.34;1648361;85;20160;-69
2022/08/24 04:39:12;;;;;;;;;;;;;;;22.95;55.08;99300.28;1649230;85;20205;-68
2022/08/24 04:41:46;;;;;;;;;;;;;;;23.13;54.54;99303.47;1648218;85;21260;-67
2022/08/24 04:44:13;;;;;;;;;;;;;;;23.34;53.99;99303.12;1649202;85;20159;-67
2022/08/24 04:46:40;;;;;;;;;;;;;;;23.50;53.53;99309.02;1647910;85;20183;-68
2022/08/24 04:49:07;;;;;;;;;;;;;;;23.69;53.08;99321.67;1648725;85;20449;-68
2022/08/24 04:51:34;;;;;;;;;;;;;;;23.84;52.75;99333.48;1648833;85;20156;-68
2022/08/24 04:54:01;;;;;;;;;;;;;;;24.02;52.63;99325.45;1649237;85;21166;-69
2022/08/24 04:56:27;;;;;;;;;;;;;;;24.19;52.24;99335.69;1648138;85;20178;-68
2022/08/24 04:58:55;;;;;;;;;;;;;;;24.35;51.70;99323.80;1649132;85;20168;-69
2022/08/24 05:01:24;;;;;;;;;;;;;;;24.36;51.03;99315.93;1649190;85;20170;-67
2022/08/24 05:03:53;;;;;;;;;;;;;;;24.27;50.74;99330.30;1649071;85;20108;-67
2022/08/24 05:06:22;;;;;;;;;;;;;;;24.19;51.23;99339.76;1648898;85;21174;-71
2022/08/24 05:08:48;;;;;;;;;;;;;;;24.26;51.64;99334.91;1647970;85;20442;-69
2022/08/24 05:11:16;;;;;;;;;;;;;;;24.48;51.55;99332.84;1648549;85;20091;-71
2022/08/24 05:13:44;;;;;;;;;;;;;;;24.76;50.90;99338.44;1647475;85;20140;-69
2022/08/24 05:16:14;;;;;;;;;;;;;;;25.08;50.35;99343.77;1645871;86;20136;-70
2022/08/24 05:18:41;;;;;;;;;;;;;;;25.44;49.48;99337.31;1644727;86;21174;-70
2022/08/24 05:21:13;;;;;;;;;;;;;;;25.75;48.99;99324.56;1644885;86;20216;-74
2022/08/24 05:23:40;;;;;;;;;;;;;;;26.14;48.39;99327.56;1663761;86;20239;-72
2022/08/24 05:26:09;;;;;;;;;;;;;;;26.54;47.71;99326.66;1645876;86;20091;-70
2022/08/24 05:28:37;;;;;;;;;;;;;;;26.85;46.47;99322.17;1645502;86;20183;-69
2022/08/24 05:31:08;;;;;;;;;;;;;;;27.11;45.50;99324.26;1643512;87;21176;-71
2022/08/24 05:33:35;;;;;;;;;;;;;;;27.33;44.99;99318.38;1643658;86;20477;-68
2022/08/24 05:36:02;;;;;;;;;;;;;;;27.59;44.66;99325.32;1644973;86;20148;-68
2022/08/24 05:38:28;;;;;;;;;;;;;;;27.90;44.03;99321.78;1643983;86;20159;-69
2022/08/24 05:40:55;;;;;;;;;;;;;;;28.16;43.64;99327.31;1643498;87;20128;-69
2022/08/24 05:43:23;;;;;;;;;;;;;;;28.24;42.99;99327.23;1643603;85;21166;-69
2022/08/24 05:45:49;;;;;;;;;;;;;;;28.22;42.68;99326.17;1661725;84;20124;-70
2022/08/24 05:48:15;;;;;;;;;;;;;;;28.30;42.38;99335.66;1643807;87;20441;-70
2022/08/24 05:50:54;;;;;;;;;;;;;;;28.44;42.49;99331.15;1645672;86;20627;-70
2022/08/24 05:53:21;;;;;;;;;;;;;;;28.66;42.12;99328.72;1643531;86;20124;-69
2022/08/24 05:55:48;;;;;;;;;;;;;;;28.85;41.44;99329.59;1644417;86;21156;-69
2022/08/24 05:58:14;;;;;;;;;;;;;;;29.10;40.31;99338.02;1645358;87;20103;-69
2022/08/24 06:00:44;;;;;;;;;;;;;;;29.13;40.17;99336.06;1646231;86;20100;-70
2022/08/24 06:03:09;;;;;;;;;;;;;;;29.31;40.26;99331.18;1646135;86;20142;-70
2022/08/24 06:05:39;;;;;;;;;;;;;;;29.60;39.43;99325.54;1645543;85;20128;-70
2022/08/24 06:08:05;;;;;;;;;;;;;;;29.77;39.08;99332.68;1646627;86;21211;-70
2022/08/24 06:10:44;;;;;;;;;;;;;;;29.80;38.81;99328.80;1646432;85;20230;-71
2022/08/24 06:13:11;;;;;;;;;;;;;;;30.04;38.61;99325.92;1646549;86;20432;-70
2022/08/24 06:15:38;;;;;;;;;;;;;;;30.37;38.11;99332.23;1648114;85;20178;-71
2022/08/24 06:18:04;;;;;;;;;;;;;;;30.63;37.47;99332.55;1649123;85;20434;-72
2022/08/24 06:20:32;;;;;;;;;;;;;;;30.80;37.23;99329.44;1649255;85;21164;-72
2022/08/24 06:22:58;;;;;;;;;;;;;;;31.04;36.96;99334.73;1649205;85;20103;-69
2022/08/24 06:28:11;;;;;;;;;;;;;;;31.57;36.18;99333.57;1633538;85;20159;-71
2022/08/24 06:30:38;;;;;;;;;;;;;;;31.78;35.25;99329.99;1649261;85;20095;-70
2022/08/24 06:33:06;;;;;;;;;;;;;;;31.83;34.44;99333.20;1647833;85;20432;-69
2022/08/24 06:35:34;;;;;;;;;;;;;;;31.95;34.63;99338.12;1648214;85;21099;-69
2022/08/24 06:38:01;;;;;;;;;;;;;;;32.07;34.35;99341.16;1649941;85;20491;-70
2022/08/24 06:40:28;;;;;;;;;;;;;;;32.23;34.29;99331.36;1647430;85;20990;-73
2022/08/24 06:42:54;;;;;;;;;;;;;;;32.67;33.84;99335.98;1648121;85;20091;-70
2022/08/24 06:45:22;;;;;;;;;;;;;;;32.88;33.14;99332.86;1647552;85;21159;-70
2022/08/24 06:47:50;;;;;;;;;;;;;;;33.10;32.93;99334.17;1647823;85;20179;-70
2022/08/24 06:50:17;;;;;;;;;;;;;;;33.27;32.62;99332.81;1653355;85;20126;-68
2022/08/24 06:52:44;;;;;;;;;;;;;;;33.33;32.55;99333.47;1648650;85;20103;-72
2022/08/24 06:55:10;;;;;;;;;;;;;;;33.45;31.95;99330.30;1649789;85;20454;-68
2022/08/24 06:57:37;;;;;;;;;;;;;;;33.62;32.27;99339.19;1647555;85;21161;-74
2022/08/24 07:00:05;;;;;;;;;;;;;;;33.99;32.01;99338.52;1646502;87;20091;-72
2022/08/24 07:02:32;;;;;;;;;;;;;;;34.38;31.00;99340.22;1650289;86;20105;-71
2022/08/24 07:04:59;;;;;;;;;;;;;;;34.61;30.30;99343.56;1649880;85;20124;-70
2022/08/24 07:07:46;;;;;;;;;;;;;;;34.65;30.20;99342.56;1645778;86;20107;-69
2022/08/24 07:10:13;;;;;;;;;;;;;;;34.95;30.26;99346.16;1646036;86;21584;-69
2022/08/24 07:12:40;;;;;;;;;;;;;;;35.14;29.65;99343.00;1647904;85;20150;-69
2022/08/24 07:15:08;;;;;;;;;;;;;;;35.32;29.61;99345.31;1635450;87;20224;-69
2022/08/24 07:17:35;;;;;;;;;;;;;;;35.56;29.45;99335.56;1630919;88;20199;-69
2022/08/24 07:20:03;;;;;;;;;;;;;;;35.93;29.54;99345.05;1652163;86;20191;-69
2022/08/24 07:22:48;;;;;;;;;;;;;;;36.39;28.74;99345.33;1630471;88;21175;-70
2022/08/24 07:25:14;;;;;;;;;;;;;;;36.97;28.43;99347.50;1629485;88;20192;-68
2022/08/24 07:27:40;;;;;;;;;;;;;;;37.41;27.21;99347.92;1630371;88;20085;-68
2022/08/24 07:30:08;;;;;;;;;;;;;;;37.53;26.80;99349.84;1626130;86;20164;-68
2022/08/24 07:32:35;;;;;;;;;;;;;;;37.59;26.80;99346.48;1631883;87;20438;-69
2022/08/24 07:35:01;;;;;;;;;;;;;;;37.73;26.61;99349.44;1631089;88;21066;-71
2022/08/24 07:37:28;;;;;;;;;;;;;;;37.83;26.51;99353.91;1630185;86;20172;-69
2022/08/24 07:39:55;;;;;;;;;;;;;;;38.02;26.19;99349.91;1630718;87;20149;-71
2022/08/24 07:42:23;;;;;;;;;;;;;;;38.21;26.21;99351.42;1625676;88;20147;-69
2022/08/24 07:44:50;;;;;;;;;;;;;;;38.59;26.02;99350.84;1623668;88;20215;-69
2022/08/24 07:47:17;;;;;;;;;;;;;;;38.80;25.38;99353.37;1633937;87;21159;-69
2022/08/24 07:49:44;;;;;;;;;;;;;;;38.98;25.26;99347.66;1630198;87;20097;-70
2022/08/24 07:52:10;;;;;;;;;;;;;;;39.18;24.97;99351.31;1628950;88;20104;-70
2022/08/24 07:54:37;;;;;;;;;;;;;;;39.34;24.50;99350.14;1632480;88;20775;-70
2022/08/24 07:57:05;;;;;;;;;;;;;;;39.67;24.06;99355.23;1632780;88;20441;-68
2022/08/24 07:59:33;;;;;;;;;;;;;;;39.98;24.06;99354.26;1638692;86;21152;-69
2022/08/24 08:02:00;;;;;;;;;;;;;;;40.00;24.13;99356.89;1638058;86;20462;-71
2022/08/24 08:04:26;;;;;;;;;;;;;;;40.01;24.54;99357.12;1623620;86;20436;-69
2022/08/24 08:06:53;;;;;;;;;;;;;;;40.13;24.37;99357.56;1668897;84;20126;-68
2022/08/24 08:09:20;;;;;;;;;;;;;;;40.19;24.11;99359.47;1639063;86;20119;-69
2022/08/24 08:11:46;;;;;;;;;;;;;;;40.38;24.57;99364.42;1639009;86;22138;-69
2022/08/24 08:14:13;;;;;;;;;;;;;;;40.86;23.20;99362.86;1636456;86;20118;-69
2022/08/24 08:16:41;;;;;;;;;;;;;;;41.13;22.64;99362.32;1611749;88;20430;-68
2022/08/24 08:19:07;;;;;;;;;;;;;;;41.18;22.44;99363.39;1622857;88;20211;-68
2022/08/24 08:24:19;;;;;;;;;;;;;;;40.59;23.65;99362.05;1636323;87;21193;-68
2022/08/24 08:26:50;;;;;;;;;;;;;;;40.72;23.66;99359.05;1635407;86;20161;-68
2022/08/24 08:29:19;;;;;;;;;;;;;;;41.25;22.95;99358.71;1621639;88;20160;-67
2022/08/24 08:31:46;;;;;;;;;;;;;;;41.72;22.10;99359.60;1626349;88;20105;-69
2022/08/24 08:34:13;;;;;;;;;;;;;;;41.68;22.75;99356.53;1625678;88;20117;-67
2022/08/24 08:36:40;;;;;;;;;;;;;;;41.63;23.39;99359.66;1622286;88;21178;-66
2022/08/24 08:39:07;;;;;;;;;;;;;;;41.61;23.40;99362.03;1622077;88;20125;-68
2022/08/24 08:41:50;;;;;;;;;;;;;;;41.56;23.38;99361.75;1624794;88;20129;-67
2022/08/24 08:44:40;;;;;;;;;;;;;;;41.52;23.29;99361.50;1626740;88;20108;-66
2022/08/24 08:47:32;;;;;;;;;;;;;;;41.31;23.54;99360.63;1627292;88;20383;-68
2022/08/24 08:50:04;;;;;;;;;;;;;;;40.95;23.87;99366.24;1614807;88;21161;-76
2022/08/24 08:53:01;;;;;;;;;;;;;;;40.85;23.36;99369.64;1627762;87;20096;-74
2022/08/24 08:55:50;;;;;;;;;;;;;;;40.90;23.35;99370.75;1604627;88;20100;-74
2022/08/24 08:58:26;;;;;;;;;;;;;;;40.94;23.50;99371.59;1625489;88;20092;-74
2022/08/24 09:01:12;;;;;;;;;;;;;;;41.18;22.71;99368.97;1623841;86;20088;-72
2022/08/24 09:04:06;;;;;;;;;;;;;;;41.33;22.23;99368.02;1627403;86;21809;-68
2022/08/24 09:07:16;;;;;;;;;;;;;;;41.53;22.89;99365.33;1595351;88;20132;-71
2022/08/24 09:09:57;;;;;;;;;;;;;;;41.70;21.99;99362.53;1600989;87;20172;-71
2022/08/24 09:12:38;;;;;;;;;;;;;;;42.08;21.73;99370.63;1630117;86;20165;-74
2022/08/24 09:15:33;;;;;;;;;;;;;;;42.41;21.41;99373.39;1619265;87;20191;-75
2022/08/24 09:18:19;;;;;;;;;;;;;;;42.60;20.94;99371.59;1634010;86;21550;-70
2022/08/24 09:21:21;;;;;;;;;;;;;;;42.93;20.70;99370.09;1662170;84;20180;-73
2022/08/24 09:24:14;;;;;;;;;;;;;;;43.30;20.40;99369.34;1630823;86;20132;-71
2022/08/24 09:27:03;;;;;;;;;;;;;;;43.91;19.87;99370.50;1625258;86;20133;-73
2022/08/24 09:29:46;;;;;;;;;;;;;;;44.37;19.39;99370.03;1644678;86;20120;-70
2022/08/24 09:32:33;;;;;;;;;;;;;;;44.89;19.05;99364.89;1645268;86;21138;-71
2022/08/24 09:35:01;;;;;;;;;;;;;;;45.57;18.40;99365.78;1634589;86;20112;-71
2022/08/24 09:37:35;;;;;;;;;;;;;;;46.37;17.39;99367.23;1644685;86;20167;-70
2022/08/24 09:40:38;;;;;;;;;;;;;;;47.00;16.44;99361.11;1646575;86;38052;-72
2022/08/24 09:43:42;;;;;;;;;;;;;;;47.44;15.34;99365.09;1646017;85;20092;-72
2022/08/24 09:46:32;;;;;;;;;;;;;;;47.36;15.48;99366.38;1645896;86;21160;-70
2022/08/24 09:49:18;;;;;;;;;;;;;;;47.59;15.71;99363.72;1646509;86;20175;-73
2022/08/24 09:52:01;;;;;;;;;;;;;;;48.08;14.92;99353.22;1614128;87;20186;-72
2022/08/24 09:54:43;;;;;;;;;;;;;;;48.67;14.11;99359.83;1646119;86;20147;-70
2022/08/24 09:57:25;;;;;;;;;;;;;;;49.09;13.54;99361.13;1645498;86;20107;-74
2022/08/24 10:00:12;;;;;;;;;;;;;;;49.49;13.25;99362.16;1646639;86;21147;-70
2022/08/24 10:02:53;;;;;;;;;;;;;;;49.65;12.82;99357.83;1629789;86;20162;-70
2022/08/24 10:05:33;;;;;;;;;;;;;;;49.82;13.04;99356.67;1641150;86;20100;-70
2022/08/24 10:08:33;;;;;;;;;;;;;;;50.38;12.78;99348.95;1645405;86;20155;-71
2022/08/24 10:11:21;;;;;;;;;;;;;;;50.81;12.21;99350.12;1645633;86;20099;-73
2022/08/24 10:14:17;;;;;;;;;;;;;;;50.73;11.76;99352.96;1645808;85;21734;-69
2022/08/24 10:16:54;;;;;;;;;;;;;;;50.64;11.50;99352.97;1644197;85;20127;-77
2022/08/24 10:19:50;;;;;;;;;;;;;;;50.59;11.80;99353.50;1655391;85;20427;-75
2022/08/24 10:22:37;;;;;;;;;;;;;;;50.21;12.08;99357.22;1661900;85;20096;-70
2022/08/24 10:25:14;;;;;;;;;;;;;;;49.53;12.60;99361.30;1646582;86;20124;-69
2022/08/24 10:27:47;;;;;;;;;;;;;;;48.77;12.87;99356.02;1626657;87;21974;-72
2022/08/24 10:30:26;;;;;;;;;;;;;;;47.07;14.11;99352.59;1644035;87;20425;-70
2022/08/24 10:33:15;;;;;;;;;;;;;;;45.45;15.49;99359.19;1644213;86;20091;-71
2022/08/24 10:36:06;;;;;;;;;;;;;;;44.94;16.30;99350.45;1645286;86;20429;-71
2022/08/24 10:43:32;;;;;;;;;;;;;;;44.31;16.30;99359.59;1633386;86;21173;-72
2022/08/24 10:44:55;;;;;;;;;;;;;;;43.83;17.07;99353.45;1638317;85;20445;-72
2022/08/24 10:47:25;;;;;;;;;;;;;;;43.61;17.57;99351.13;1642051;85;20128;-71
2022/08/24 10:50:14;;;;;;;;;;;;;;;43.34;17.67;99355.38;1644012;86;20091;-74
2022/08/24 10:52:44;;;;;;;;;;;;;;;42.70;18.12;99357.70;1644517;86;20120;-72
2022/08/24 10:55:18;;;;;;;;;;;;;;;41.58;18.91;99361.39;1643612;85;21258;-73
2022/08/24 10:57:51;;;;;;;;;;;;;;;40.81;20.14;99359.58;1643588;86;20079;-73
2022/08/24 11:00:20;;;;;;;;;;;;;;;39.97;21.06;99370.77;1645044;85;20149;-77
2022/08/24 11:02:47;;;;;;;;;;;;;;;39.17;22.02;99364.98;1646381;86;20144;-79
2022/08/24 11:05:16;;;;;;;;;;;;;;;38.62;22.75;99368.20;1644016;86;20127;-78
2022/08/24 11:07:58;;;;;;;;;;;;;;;38.15;23.53;99357.58;1672152;84;21799;-70
2022/08/24 11:10:28;;;;;;;;;;;;;;;37.89;24.04;99358.63;1645100;86;20432;-71
2022/08/24 11:12:54;;;;;;;;;;;;;;;37.72;24.07;99363.89;1643668;85;20191;-74
2022/08/24 11:15:25;;;;;;;;;;;;;;;37.64;23.93;99366.23;1643553;85;20436;-69
2022/08/24 11:17:59;;;;;;;;;;;;;;;37.63;23.13;99367.38;1651070;85;20171;-72
2022/08/24 11:20:31;;;;;;;;;;;;;;;37.64;22.78;99357.33;1634500;86;21107;-70
2022/08/24 11:23:01;;;;;;;;;;;;;;;37.81;23.16;99362.34;1644418;86;20176;-72
2022/08/24 11:25:29;;;;;;;;;;;;;;;37.92;22.96;99355.97;1643953;86;20194;-71
2022/08/24 11:28:16;;;;;;;;;;;;;;;37.93;23.04;99372.05;1643737;86;20096;-69
2022/08/24 11:30:42;;;;;;;;;;;;;;;37.90;22.88;99365.23;1643006;87;20120;-71
2022/08/24 11:33:27;;;;;;;;;;;;;;;37.75;23.58;99361.80;1645324;86;21161;-70
2022/08/24 11:35:54;;;;;;;;;;;;;;;37.49;24.09;99366.37;1643527;86;20112;-70
2022/08/24 11:38:30;;;;;;;;;;;;;;;37.02;25.04;99363.89;1643640;87;20092;-69
2022/08/24 11:41:06;;;;;;;;;;;;;;;36.74;25.22;99365.12;1643480;87;20116;-70
2022/08/24 11:43:57;;;;;;;;;;;;;;;36.62;25.26;99369.84;1644355;86;20087;-71
2022/08/24 11:46:33;;;;;;;;;;;;;;;36.40;25.82;99369.08;1643918;86;21161;-72
2022/08/24 11:49:15;;;;;;;;;;;;;;;36.22;26.75;99377.34;1627245;87;20091;-68
2022/08/24 11:51:54;;;;;;;;;;;;;;;36.09;27.48;99379.84;1643493;86;20120;-68
2022/08/24 11:54:54;;;;;;;;;;;;;;;35.95;27.80;99382.88;1644477;86;20104;-71
2022/08/24 11:57:31;;;;;;;;;;;;;;;35.89;28.42;99380.67;1644593;86;20180;-69
2022/08/24 12:00:00;;;;;;;;;;;;;;;35.92;29.15;99386.91;1640437;86;21966;-68
2022/08/24 12:02:33;;;;;;;;;;;;;;;36.00;29.04;99388.80;1646342;86;20107;-69
2022/08/24 12:05:12;;;;;;;;;;;;;;;35.93;29.02;99387.12;1644934;86;20103;-68
2022/08/24 12:07:59;;;;;;;;;;;;;;;35.81;28.88;99388.47;1645907;85;20124;-70
2022/08/24 12:10:41;;;;;;;;;;;;;;;35.71;28.30;99386.93;1646124;86;20092;-72
2022/08/24 12:13:28;;;;;;;;;;;;;;;35.64;28.48;99387.24;1648462;85;21130;-68
2022/08/24 12:16:04;;;;;;;;;;;;;;;35.53;29.04;99394.28;1646312;85;20079;-73
2022/08/24 12:18:55;;;;;;;;;;;;;;;35.25;29.54;99390.63;1647504;85;20433;-68
2022/08/24 12:21:24;;;;;;;;;;;;;;;35.08;29.87;99385.22;1624580;86;21048;-68
2022/08/24 12:23:54;;;;;;;;;;;;;;;34.92;29.93;99382.75;1645890;86;20112;-68
2022/08/24 12:26:38;;;;;;;;;;;;;;;34.84;30.53;99380.84;1657527;85;21186;-69
2022/08/24 12:29:20;;;;;;;;;;;;;;;34.78;30.41;99378.04;1645804;85;20158;-71
2022/08/24 12:31:54;;;;;;;;;;;;;;;34.74;30.11;99377.06;1646437;85;20441;-71
2022/08/24 12:34:55;;;;;;;;;;;;;;;34.67;30.21;99373.45;1646293;86;20123;-74
2022/08/24 12:37:36;;;;;;;;;;;;;;;34.57;30.19;99373.00;1646422;86;20103;-74
2022/08/24 12:40:14;;;;;;;;;;;;;;;34.49;30.61;99370.48;1646321;86;21191;-69
2022/08/24 12:42:47;;;;;;;;;;;;;;;34.44;31.53;99371.23;1645215;86;20464;-69
2022/08/24 12:45:16;;;;;;;;;;;;;;;34.40;30.50;99368.87;1646316;86;20091;-71
2022/08/24 12:47:51;;;;;;;;;;;;;;;34.28;30.02;99369.57;1645444;85;20195;-70
2022/08/24 12:50:51;;;;;;;;;;;;;;;34.09;29.77;99371.31;1646465;86;20467;-69
2022/08/24 12:53:30;;;;;;;;;;;;;;;33.89;30.70;99369.77;1645339;85;21139;-70
2022/08/24 12:56:13;;;;;;;;;;;;;;;33.77;30.85;99366.84;1645391;86;20150;-69
2022/08/24 12:58:59;;;;;;;;;;;;;;;33.67;30.97;99373.50;1647187;86;20186;-69
2022/08/24 13:01:32;;;;;;;;;;;;;;;33.52;31.48;99375.33;1646276;86;20430;-71
2022/08/24 13:04:12;;;;;;;;;;;;;;;33.42;31.75;99382.55;1644219;86;20521;-72
2022/08/24 13:06:42;;;;;;;;;;;;;;;33.31;31.68;99381.23;1643129;85;21088;-76
2022/08/24 13:09:15;;;;;;;;;;;;;;;33.15;31.86;99377.30;1646209;86;20127;-70
2022/08/24 13:11:41;;;;;;;;;;;;;;;33.04;32.20;99375.94;1638431;86;20474;-69
2022/08/24 13:14:18;;;;;;;;;;;;;;;32.93;32.51;99377.61;1645010;85;20171;-69
2022/08/24 13:16:51;;;;;;;;;;;;;;;32.82;32.94;99373.55;1650732;85;20444;-69
2022/08/24 13:19:30;;;;;;;;;;;;;;;32.79;33.05;99368.67;1625619;87;21129;-68
2022/08/24 13:22:12;;;;;;;;;;;;;;;32.75;33.40;99368.22;1640024;86;20520;-69
2022/08/24 13:24:41;;;;;;;;;;;;;;;32.73;33.54;99371.31;1639687;86;20117;-69